Time;durP1;ratioP1;P1;durP2;ratioP2;P2;SDS_P1;SDS_P2;PMS_P1;PMS_P2;Temp;Humidity;BMP_temperature;BMP_pressure;BME280_temperature;BME280_humidity;BME280_pressure;Samples;Min_cycle;Max_cycle;Signal;HPM_P1;HPM_P2
2023/09/19 00:02:36;;;;;;;3.80;3.50;;;17.50;80.00;;;;;;6017502;29;20539;-81
2023/09/19 00:05:44;;;;;;;3.73;3.60;;;17.40;80.10;;;;;;6009228;29;20246;-81
2023/09/19 00:08:48;;;;;;;4.27;3.87;;;17.40;80.10;;;;;;6021846;29;20241;-83
2023/09/19 00:11:52;;;;;;;6.40;3.97;;;17.40;80.10;;;;;;6001283;29;20252;-80
2023/09/19 00:14:56;;;;;;;4.43;4.13;;;17.30;80.00;;;;;;6015473;29;20252;-82
2023/09/19 00:18:01;;;;;;;3.63;3.40;;;17.20;80.20;;;;;;6019237;29;22151;-81
2023/09/19 00:21:04;;;;;;;3.80;3.60;;;17.20;80.30;;;;;;6022893;29;20344;-80
2023/09/19 00:24:08;;;;;;;7.23;4.40;;;17.20;80.30;;;;;;6016800;29;20328;-82
2023/09/19 00:27:13;;;;;;;3.97;3.77;;;17.20;80.40;;;;;;6015216;29;20245;-82
2023/09/19 00:30:19;;;;;;;4.47;4.17;;;17.20;80.40;;;;;;6016313;29;20240;-81
2023/09/19 00:33:24;;;;;;;6.00;3.80;;;17.20;80.40;;;;;;6016631;29;20233;-80
2023/09/19 00:36:28;;;;;;;4.10;3.90;;;17.10;80.30;;;;;;6015982;29;20233;-81
2023/09/19 00:39:31;;;;;;;6.10;4.40;;;17.20;80.30;;;;;;6020729;29;20245;-78
2023/09/19 00:42:37;;;;;;;4.50;4.17;;;17.10;80.30;;;;;;6011047;29;20241;-78
2023/09/19 00:45:45;;;;;;;4.50;4.10;;;17.10;80.30;;;;;;6000787;29;20249;-83
2023/09/19 00:48:49;;;;;;;5.83;3.77;;;17.00;80.40;;;;;;6022443;29;20245;-81
2023/09/19 00:51:52;;;;;;;4.03;3.70;;;17.00;80.40;;;;;;6014503;29;20813;-81
2023/09/19 00:54:56;;;;;;;4.73;4.33;;;17.00;80.30;;;;;;6016451;29;20321;-78
2023/09/19 00:58:01;;;;;;;5.97;3.93;;;17.00;80.40;;;;;;6007225;29;20406;-79
2023/09/19 01:01:06;;;;;;;3.93;3.73;;;17.00;80.40;;;;;;6006588;29;20559;-81
2023/09/19 01:04:10;;;;;;;3.93;3.63;;;17.00;80.40;;;;;;6009749;29;20280;-80
2023/09/19 01:07:15;;;;;;;4.23;3.90;;;17.00;80.30;;;;;;6020803;29;20268;-81
2023/09/19 01:10:20;;;;;;;4.37;3.97;;;17.00;80.30;;;;;;6012802;29;20808;-79
2023/09/19 01:13:31;;;;;;;3.97;3.77;;;17.00;80.30;;;;;;6001873;29;20330;-80
2023/09/19 01:16:43;;;;;;;5.30;3.93;;;17.00;80.20;;;;;;6023441;29;20256;-81
2023/09/19 01:20:25;;;;;;;6.57;4.13;;;16.90;80.30;;;;;;6027412;29;20277;-81
2023/09/19 01:23:51;;;;;;;4.20;3.50;;;16.90;80.30;;;;;;6018325;29;20240;-81
2023/09/19 01:27:18;;;;;;;3.70;3.50;;;17.00;80.20;;;;;;6011354;29;20601;-81
2023/09/19 01:30:29;;;;;;;3.70;3.47;;;17.00;80.20;;;;;;6012076;29;20245;-79
2023/09/19 01:33:59;;;;;;;3.60;3.40;;;17.00;80.20;;;;;;6004912;29;20865;-79
2023/09/19 01:37:03;;;;;;;3.70;3.60;;;17.00;80.10;;;;;;6019520;29;20242;-81
2023/09/19 01:40:14;;;;;;;3.53;3.20;;;17.00;80.00;;;;;;6019437;29;20252;-81
2023/09/19 01:43:27;;;;;;;5.07;3.70;;;17.10;79.70;;;;;;6012795;29;20244;-80
2023/09/19 01:46:36;;;;;;;3.93;3.53;;;17.10;79.40;;;;;;6016212;29;20230;-81
2023/09/19 01:49:46;;;;;;;3.40;3.20;;;17.10;79.30;;;;;;6009487;29;20328;-82
2023/09/19 01:52:55;;;;;;;3.93;3.57;;;17.20;79.30;;;;;;6023794;29;20596;-81
2023/09/19 01:56:01;;;;;;;3.73;3.50;;;17.20;79.20;;;;;;6021902;29;20383;-81
2023/09/19 01:59:10;;;;;;;3.67;3.47;;;17.20;79.00;;;;;;6011723;29;20244;-81
2023/09/19 02:02:17;;;;;;;4.23;3.40;;;17.20;79.00;;;;;;6018321;29;20260;-83
2023/09/19 02:05:24;;;;;;;3.57;3.37;;;17.20;79.00;;;;;;6024042;29;20240;-82
2023/09/19 02:08:29;;;;;;;3.27;3.10;;;17.10;78.90;;;;;;6016659;29;20245;-78
2023/09/19 02:11:32;;;;;;;3.87;3.60;;;17.00;79.10;;;;;;6013880;29;20951;-81
2023/09/19 02:14:35;;;;;;;3.80;3.50;;;17.00;79.10;;;;;;6012299;29;20929;-81
2023/09/19 02:17:41;;;;;;;3.90;3.60;;;17.00;79.20;;;;;;6006955;29;20242;-82
2023/09/19 02:20:45;;;;;;;3.83;3.50;;;17.00;79.20;;;;;;6010908;29;20242;-79
2023/09/19 02:23:48;;;;;;;4.00;3.70;;;17.00;79.40;;;;;;6017858;29;20338;-80
2023/09/19 02:26:52;;;;;;;5.37;3.70;;;17.00;79.30;;;;;;6004207;29;20676;-80
2023/09/19 02:29:55;;;;;;;4.90;3.30;;;17.00;79.40;;;;;;6003097;29;20249;-81
2023/09/19 02:33:03;;;;;;;4.00;3.37;;;17.00;79.40;;;;;;6009598;29;20245;-81
2023/09/19 02:36:07;;;;;;;3.40;3.17;;;17.00;79.30;;;;;;6001040;29;20255;-78
2023/09/19 02:39:11;;;;;;;3.40;3.20;;;16.90;79.40;;;;;;6009205;29;20250;-79
2023/09/19 02:42:16;;;;;;;3.23;3.13;;;16.90;79.50;;;;;;6024506;29;20745;-81
2023/09/19 02:45:20;;;;;;;4.03;3.57;;;16.90;79.60;;;;;;6009525;29;20941;-82
2023/09/19 02:48:25;;;;;;;3.77;3.47;;;16.80;79.80;;;;;;6012050;29;20716;-78
2023/09/19 02:51:29;;;;;;;3.77;3.57;;;16.80;79.90;;;;;;6005673;29;20623;-79
2023/09/19 02:54:32;;;;;;;5.47;3.60;;;16.80;79.80;;;;;;6009822;29;20250;-79
2023/09/19 02:57:36;;;;;;;3.40;3.30;;;16.90;79.60;;;;;;6011634;29;20241;-80
2023/09/19 03:00:41;;;;;;;3.53;3.33;;;16.90;79.70;;;;;;6014725;29;20862;-80
2023/09/19 03:03:46;;;;;;;3.13;3.03;;;16.90;79.60;;;;;;6013163;29;20292;-82
2023/09/19 03:06:51;;;;;;;4.13;3.70;;;16.90;79.60;;;;;;6009412;29;20943;-80
2023/09/19 03:09:55;;;;;;;3.53;3.33;;;16.90;79.50;;;;;;6016052;29;20244;-79
2023/09/19 03:12:59;;;;;;;4.83;3.50;;;16.90;79.40;;;;;;6019742;29;20328;-83
2023/09/19 03:16:05;;;;;;;3.30;3.10;;;16.90;79.30;;;;;;6013726;29;20242;-82
2023/09/19 03:19:11;;;;;;;3.37;3.27;;;16.90;79.00;;;;;;6016683;29;20245;-82
2023/09/19 03:22:32;;;;;;;3.40;2.93;;;16.90;79.00;;;;;;6017054;29;20245;-81
2023/09/19 03:25:37;;;;;;;3.40;3.20;;;16.90;78.80;;;;;;6019837;29;20256;-82
2023/09/19 03:28:40;;;;;;;3.87;2.93;;;16.90;78.40;;;;;;6015482;29;20537;-80
2023/09/19 03:31:47;;;;;;;3.07;2.87;;;17.00;78.00;;;;;;6010006;29;20391;-80
2023/09/19 03:34:52;;;;;;;3.10;2.90;;;16.90;77.70;;;;;;6015343;29;20275;-80
2023/09/19 03:37:55;;;;;;;3.20;2.90;;;17.00;77.30;;;;;;6011475;29;20249;-81
2023/09/19 03:40:58;;;;;;;2.73;2.63;;;17.00;76.70;;;;;;6023903;29;20248;-80
2023/09/19 03:44:01;;;;;;;2.87;2.77;;;17.00;76.50;;;;;;6019542;29;20245;-82
2023/09/19 03:47:05;;;;;;;4.67;2.70;;;17.00;76.40;;;;;;6000814;29;20328;-80
2023/09/19 03:50:12;;;;;;;2.80;2.70;;;17.00;76.20;;;;;;6019206;29;20236;-79
2023/09/19 03:53:15;;;;;;;2.90;2.70;;;17.00;75.90;;;;;;6012100;29;20337;-79
2023/09/19 03:56:18;;;;;;;3.03;2.93;;;17.00;75.70;;;;;;6008440;29;20324;-80
2023/09/19 03:59:22;;;;;;;2.83;2.83;;;17.00;75.70;;;;;;6007556;29;20256;-79
2023/09/19 04:02:25;;;;;;;2.50;2.30;;;17.00;75.40;;;;;;6015941;29;20244;-80
2023/09/19 04:05:29;;;;;;;2.97;2.83;;;17.00;75.40;;;;;;6018327;29;20239;-79
2023/09/19 04:08:32;;;;;;;4.03;3.20;;;17.00;75.30;;;;;;6006458;29;20278;-81
2023/09/19 04:11:36;;;;;;;3.30;2.80;;;17.00;75.30;;;;;;6018526;29;20264;-83
2023/09/19 04:14:39;;;;;;;3.03;2.60;;;17.00;74.90;;;;;;6000657;29;20718;-81
2023/09/19 04:17:42;;;;;;;4.47;2.87;;;17.00;74.20;;;;;;5985260;29;20253;-81
2023/09/19 04:20:50;;;;;;;2.80;2.70;;;17.00;73.70;;;;;;6022437;29;20252;-81
2023/09/19 04:23:53;;;;;;;2.93;2.70;;;16.90;73.40;;;;;;6008741;29;20669;-82
2023/09/19 04:26:57;;;;;;;3.30;3.00;;;16.90;72.90;;;;;;6009273;29;20248;-80
2023/09/19 04:30:08;;;;;;;2.90;2.70;;;16.90;72.70;;;;;;6005036;29;20252;-82
2023/09/19 04:33:11;;;;;;;2.80;2.60;;;16.90;72.50;;;;;;6001445;29;20351;-80
2023/09/19 04:36:16;;;;;;;3.17;3.03;;;16.90;72.20;;;;;;6015323;29;20240;-80
2023/09/19 04:39:38;;;;;;;2.83;2.83;;;16.90;72.00;;;;;;6003970;29;20760;-79
2023/09/19 04:42:41;;;;;;;2.83;2.70;;;16.90;72.00;;;;;;6007410;29;20241;-82
2023/09/19 04:45:46;;;;;;;2.73;2.53;;;16.80;72.00;;;;;;6004688;29;20327;-81
2023/09/19 04:48:49;;;;;;;2.93;2.70;;;16.90;71.90;;;;;;6018615;29;20745;-78
2023/09/19 04:51:55;;;;;;;2.60;2.60;;;16.80;72.00;;;;;;6015500;29;20237;-77
2023/09/19 04:54:59;;;;;;;2.90;2.70;;;16.80;71.90;;;;;;6014687;29;20245;-78
2023/09/19 04:58:02;;;;;;;2.57;2.47;;;16.80;72.10;;;;;;6003501;29;20249;-77
2023/09/19 05:01:07;;;;;;;2.90;2.80;;;16.70;72.20;;;;;;6009513;29;20852;-77
2023/09/19 05:04:10;;;;;;;2.27;2.27;;;16.70;72.20;;;;;;6017699;29;20982;-78
2023/09/19 05:07:15;;;;;;;5.20;2.47;;;16.70;72.20;;;;;;6010878;29;20245;-79
2023/09/19 05:10:19;;;;;;;2.20;2.20;;;16.70;72.10;;;;;;6006368;29;20362;-82
2023/09/19 05:13:23;;;;;;;2.83;2.70;;;16.70;72.10;;;;;;6000105;29;20249;-79
2023/09/19 05:16:26;;;;;;;2.93;2.40;;;16.60;72.20;;;;;;6005615;29;20734;-82
2023/09/19 05:19:29;;;;;;;3.10;2.90;;;16.60;72.20;;;;;;6016796;29;20248;-80
2023/09/19 05:22:34;;;;;;;3.17;2.70;;;16.60;72.10;;;;;;6009451;29;20295;-77
2023/09/19 05:25:38;;;;;;;4.60;2.90;;;16.60;72.10;;;;;;6009717;29;20249;-76
2023/09/19 05:28:43;;;;;;;3.00;2.87;;;16.60;71.80;;;;;;6012473;29;20242;-77
2023/09/19 05:31:46;;;;;;;2.60;2.40;;;16.60;72.00;;;;;;6008390;29;20252;-77
2023/09/19 05:34:52;;;;;;;2.87;2.67;;;16.60;72.00;;;;;;6007680;29;20248;-77
2023/09/19 05:37:58;;;;;;;3.07;2.87;;;16.50;72.10;;;;;;6003097;29;20247;-78
2023/09/19 05:41:02;;;;;;;3.07;2.80;;;16.50;72.20;;;;;;6007204;29;20842;-78
2023/09/19 05:44:06;;;;;;;3.27;3.07;;;16.50;72.10;;;;;;6019053;29;20245;-76
2023/09/19 05:47:10;;;;;;;3.40;3.10;;;16.50;72.10;;;;;;6016621;29;20482;-77
2023/09/19 05:50:14;;;;;;;3.17;2.90;;;16.50;72.10;;;;;;6015790;29;20248;-79
2023/09/19 05:53:19;;;;;;;2.90;2.80;;;16.40;72.10;;;;;;6022495;29;20236;-77
2023/09/19 05:56:22;;;;;;;3.63;2.80;;;16.50;72.00;;;;;;6017060;29;20252;-76
2023/09/19 05:59:25;;;;;;;4.70;3.30;;;16.50;71.70;;;;;;6009361;29;20859;-76
2023/09/19 06:02:29;;;;;;;4.03;3.07;;;16.50;71.80;;;;;;6018942;29;20323;-77
2023/09/19 06:05:33;;;;;;;4.03;2.93;;;16.50;71.90;;;;;;6011933;29;20271;-79
2023/09/19 06:08:38;;;;;;;4.27;3.00;;;16.50;71.90;;;;;;6017611;29;20369;-79
2023/09/19 06:11:42;;;;;;;7.40;3.40;;;16.50;71.80;;;;;;6012044;29;20269;-78
2023/09/19 06:14:46;;;;;;;4.47;2.80;;;16.50;72.00;;;;;;6005588;29;20245;-77
2023/09/19 06:17:50;;;;;;;3.07;2.97;;;16.50;71.70;;;;;;6014278;29;20283;-76
2023/09/19 06:20:53;;;;;;;3.30;3.10;;;16.50;72.00;;;;;;6016461;29;20353;-76
2023/09/19 06:23:57;;;;;;;3.53;3.20;;;16.50;71.80;;;;;;6007621;29;20264;-77
2023/09/19 06:27:02;;;;;;;4.77;3.20;;;16.60;71.50;;;;;;6011817;29;20240;-77
2023/09/19 06:30:07;;;;;;;4.53;3.57;;;16.60;71.30;;;;;;6013006;29;20253;-78
2023/09/19 06:33:13;;;;;;;3.17;2.90;;;16.60;71.20;;;;;;6013624;29;20248;-77
2023/09/19 06:36:20;;;;;;;3.43;3.10;;;16.60;71.30;;;;;;6013715;29;20241;-77
2023/09/19 06:39:25;;;;;;;6.07;3.30;;;16.60;71.00;;;;;;6010211;29;20377;-79
2023/09/19 06:42:29;;;;;;;4.33;3.37;;;16.70;71.10;;;;;;6011953;29;20748;-77
2023/09/19 06:45:32;;;;;;;3.13;3.03;;;16.80;70.70;;;;;;6013346;29;20661;-77
2023/09/19 06:48:35;;;;;;;3.43;3.20;;;16.90;70.50;;;;;;6018281;29;20256;-78
2023/09/19 06:51:38;;;;;;;4.53;3.40;;;17.00;70.10;;;;;;6010477;29;20255;-77
2023/09/19 06:54:43;;;;;;;3.30;3.10;;;17.00;70.00;;;;;;6009939;29;20809;-77
2023/09/19 06:57:46;;;;;;;4.07;3.70;;;17.00;69.90;;;;;;6015107;29;20245;-77
2023/09/19 07:00:50;;;;;;;3.97;3.27;;;17.20;69.70;;;;;;6010960;29;20380;-79
2023/09/19 07:03:53;;;;;;;3.90;3.37;;;17.20;69.20;;;;;;6010898;29;20241;-78
2023/09/19 07:06:56;;;;;;;3.27;3.07;;;17.50;68.70;;;;;;6008040;29;20233;-76
2023/09/19 07:10:01;;;;;;;4.77;3.53;;;17.60;68.70;;;;;;6015964;29;20291;-78
2023/09/19 07:13:06;;;;;;;3.43;3.17;;;17.80;68.00;;;;;;6012221;29;20249;-76
2023/09/19 07:16:10;;;;;;;4.13;3.30;;;17.90;67.60;;;;;;6012817;29;20253;-78
2023/09/19 07:19:15;;;;;;;4.27;2.80;;;18.00;67.90;;;;;;6018787;29;20244;-76
2023/09/19 07:22:18;;;;;;;3.63;3.43;;;18.30;66.70;;;;;;6014997;29;20233;-78
2023/09/19 07:25:22;;;;;;;3.57;3.17;;;18.40;65.90;;;;;;6017268;29;20244;-77
2023/09/19 07:28:26;;;;;;;2.67;2.63;;;18.40;65.50;;;;;;6012365;29;20237;-79
2023/09/19 07:31:29;;;;;;;3.13;2.93;;;18.50;65.40;;;;;;6013681;29;20249;-79
2023/09/19 07:34:32;;;;;;;3.30;3.10;;;18.50;64.80;;;;;;6021972;29;20343;-79
2023/09/19 07:37:36;;;;;;;4.53;3.00;;;18.60;64.60;;;;;;6009006;29;20256;-80
2023/09/19 07:40:40;;;;;;;3.40;3.10;;;18.40;65.20;;;;;;6025420;29;20244;-79
2023/09/19 07:43:44;;;;;;;6.50;3.53;;;18.50;64.80;;;;;;6011783;29;20265;-76
2023/09/19 07:46:50;;;;;;;3.70;3.13;;;18.30;64.70;;;;;;6017242;29;20327;-78
2023/09/19 07:49:55;;;;;;;5.40;3.90;;;18.30;64.80;;;;;;6017684;29;20252;-79
2023/09/19 07:52:58;;;;;;;6.20;5.50;;;18.30;64.90;;;;;;6010861;29;20250;-77
2023/09/19 07:56:11;;;;;;;3.77;3.60;;;18.30;64.60;;;;;;6022719;29;20241;-81
2023/09/19 07:59:14;;;;;;;4.03;3.70;;;18.30;64.20;;;;;;6009833;29;20237;-79
2023/09/19 08:02:18;;;;;;;5.90;4.00;;;18.30;63.80;;;;;;6007366;29;20256;-78
2023/09/19 08:05:22;;;;;;;3.97;3.60;;;18.30;63.30;;;;;;6016203;29;20239;-80
2023/09/19 08:08:26;;;;;;;7.67;3.70;;;18.30;63.00;;;;;;6021831;29;20253;-77
2023/09/19 08:11:31;;;;;;;5.53;3.77;;;18.20;63.00;;;;;;6032100;29;20232;-77
2023/09/19 08:14:34;;;;;;;4.03;3.60;;;18.40;63.50;;;;;;6024321;29;20245;-77
2023/09/19 08:17:37;;;;;;;3.70;3.40;;;18.20;62.80;;;;;;6019686;29;20249;-77
2023/09/19 08:20:42;;;;;;;5.47;3.80;;;18.20;63.40;;;;;;6013903;29;20259;-78
2023/09/19 08:23:45;;;;;;;5.17;3.90;;;18.20;62.90;;;;;;6018763;29;20241;-77
2023/09/19 08:26:51;;;;;;;5.97;3.47;;;18.20;62.50;;;;;;6009982;29;20248;-78
2023/09/19 08:29:54;;;;;;;4.57;3.60;;;18.20;61.90;;;;;;6010882;29;20237;-79
2023/09/19 08:32:59;;;;;;;3.60;3.30;;;18.10;62.50;;;;;;6015456;29;20245;-77
2023/09/19 08:36:04;;;;;;;3.83;3.60;;;18.10;62.30;;;;;;6003874;29;20254;-81
2023/09/19 08:39:08;;;;;;;4.23;3.77;;;18.10;62.50;;;;;;6006169;29;20638;-77
2023/09/19 08:42:13;;;;;;;4.40;4.00;;;18.00;62.80;;;;;;6013043;29;20787;-78
2023/09/19 08:45:16;;;;;;;4.43;4.00;;;18.00;63.40;;;;;;6010890;29;20719;-78
2023/09/19 08:48:24;;;;;;;9.60;3.83;;;18.00;63.00;;;;;;6012368;29;20245;-78
2023/09/19 08:51:34;;;;;;;4.47;4.10;;;18.10;63.20;;;;;;6014541;29;20229;-79
2023/09/19 08:54:41;;;;;;;4.07;3.80;;;18.00;62.40;;;;;;6006438;29;20390;-78
2023/09/19 08:57:48;;;;;;;7.77;3.90;;;17.90;62.90;;;;;;6003002;29;20445;-79
2023/09/19 09:00:54;;;;;;;4.23;3.83;;;17.90;62.60;;;;;;6007713;29;20309;-78
2023/09/19 09:03:58;;;;;;;9.30;4.23;;;18.00;62.30;;;;;;6006437;29;20758;-77
2023/09/19 09:07:03;;;;;;;4.17;3.63;;;18.10;61.90;;;;;;6004925;29;20918;-77
2023/09/19 09:10:08;;;;;;;5.23;3.70;;;18.10;61.70;;;;;;6002685;29;20826;-77
2023/09/19 09:13:14;;;;;;;4.07;3.87;;;18.20;61.60;;;;;;6001247;29;20814;-76
2023/09/19 09:16:18;;;;;;;3.70;3.50;;;18.20;61.70;;;;;;6005655;29;20241;-76
2023/09/19 09:19:24;;;;;;;3.87;3.67;;;18.40;61.40;;;;;;6008011;29;20248;-75
2023/09/19 09:22:28;;;;;;;4.13;3.73;;;18.40;61.00;;;;;;6015415;29;20245;-78
2023/09/19 09:25:54;;;;;;;4.17;3.77;;;18.60;60.60;;;;;;6008181;29;20291;-76
2023/09/19 09:28:59;;;;;;;3.93;3.63;;;18.70;60.30;;;;;;6005874;29;20253;-76
2023/09/19 09:32:19;;;;;;;7.20;3.77;;;18.50;60.70;;;;;;6012336;29;20745;-77
2023/09/19 09:35:23;;;;;;;4.27;3.87;;;18.50;60.60;;;;;;6008244;29;20245;-79
2023/09/19 09:38:28;;;;;;;5.77;3.80;;;18.50;60.00;;;;;;6009385;29;20303;-77
2023/09/19 09:41:39;;;;;;;4.93;4.00;;;18.60;60.00;;;;;;6014938;29;20244;-79
2023/09/19 09:44:44;;;;;;;3.93;3.63;;;18.80;59.50;;;;;;6013083;29;20251;-77
2023/09/19 09:47:54;;;;;;;4.30;4.00;;;18.90;59.30;;;;;;6006289;29;20317;-75
2023/09/19 09:51:02;;;;;;;6.03;3.57;;;19.00;59.10;;;;;;6011324;29;20316;-77
2023/09/19 09:54:12;;;;;;;4.47;3.97;;;19.00;58.20;;;;;;6016928;29;20256;-76
2023/09/19 09:57:17;;;;;;;4.73;4.10;;;19.00;58.30;;;;;;6011087;29;20271;-76
2023/09/19 10:00:21;;;;;;;4.37;3.80;;;19.00;57.80;;;;;;6021623;29;20257;-78
2023/09/19 10:03:33;;;;;;;5.53;4.20;;;19.30;57.10;;;;;;6012127;29;20312;-78
2023/09/19 10:06:46;;;;;;;6.33;4.27;;;19.40;55.80;;;;;;6018501;29;20317;-77
2023/09/19 10:09:51;;;;;;;6.63;3.80;;;19.40;55.20;;;;;;6008572;29;20268;-79
2023/09/19 10:13:02;;;;;;;4.43;3.73;;;19.40;55.50;;;;;;6015555;29;20249;-77
2023/09/19 10:16:14;;;;;;;5.87;4.17;;;19.50;55.80;;;;;;6014528;29;20265;-78
2023/09/19 10:19:24;;;;;;;3.47;3.03;;;19.60;55.10;;;;;;6018711;29;20242;-77
2023/09/19 10:22:32;;;;;;;4.90;3.97;;;19.80;55.00;;;;;;6009440;29;20256;-79
2023/09/19 10:25:37;;;;;;;4.30;3.90;;;19.70;54.60;;;;;;6006732;29;20784;-75
2023/09/19 10:28:41;;;;;;;4.23;3.87;;;19.60;54.30;;;;;;6020130;29;20335;-78
2023/09/19 10:31:50;;;;;;;3.47;3.10;;;19.60;54.90;;;;;;6005664;29;20249;-78
2023/09/19 10:34:55;;;;;;;6.47;3.93;;;19.40;54.00;;;;;;6013983;29;20244;-79
2023/09/19 10:38:02;;;;;;;5.10;3.73;;;19.50;54.30;;;;;;6020224;29;20256;-78
2023/09/19 10:41:06;;;;;;;6.03;4.20;;;19.50;53.60;;;;;;6015869;29;20747;-78
2023/09/19 10:44:09;;;;;;;4.20;3.83;;;19.70;53.60;;;;;;6007140;29;20245;-79
2023/09/19 10:47:19;;;;;;;5.97;3.80;;;20.00;53.40;;;;;;6019983;29;20245;-76
2023/09/19 10:50:22;;;;;;;4.57;3.80;;;19.90;53.20;;;;;;6008392;29;20252;-79
2023/09/19 10:53:27;;;;;;;5.23;3.93;;;20.00;52.00;;;;;;6010542;29;20232;-77
2023/09/19 10:56:36;;;;;;;5.20;3.70;;;20.00;51.40;;;;;;6012242;29;20256;-79
2023/09/19 11:03:30;;;;;;;12.67;4.07;;;20.10;51.00;;;;;;6007291;29;20873;-76
2023/09/19 11:06:36;;;;;;;5.77;3.97;;;20.30;50.70;;;;;;6005216;29;20244;-80
2023/09/19 11:09:47;;;;;;;5.60;3.90;;;20.00;51.50;;;;;;6008974;29;20329;-79
2023/09/19 11:12:50;;;;;;;4.67;3.23;;;20.50;51.00;;;;;;6007959;29;20237;-77
2023/09/19 11:16:23;;;;;;;5.37;3.90;;;20.30;50.30;;;;;;6010159;29;20241;-78
2023/09/19 11:20:23;;;;;;;4.17;3.83;;;20.10;51.10;;;;;;6019870;29;20256;-77
2023/09/19 11:23:27;;;;;;;8.27;4.10;;;20.00;50.90;;;;;;6002188;29;20753;-77
2023/09/19 11:26:47;;;;;;;7.87;3.77;;;20.00;50.80;;;;;;6013382;29;20246;-76
2023/09/19 11:30:35;;;;;;;5.50;3.83;;;20.00;51.20;;;;;;6012579;29;20644;-78
2023/09/19 11:33:46;;;;;;;6.53;3.57;;;20.10;50.50;;;;;;5999403;29;20321;-77
2023/09/19 11:36:50;;;;;;;7.30;3.97;;;20.30;50.40;;;;;;6019113;29;20237;-80
2023/09/19 11:40:15;;;;;;;5.03;3.10;;;20.10;50.90;;;;;;6012696;29;20261;-81
2023/09/19 11:43:33;;;;;;;4.43;3.63;;;20.30;50.50;;;;;;6017653;29;20237;-79
2023/09/19 11:46:54;;;;;;;5.03;3.40;;;20.30;50.10;;;;;;6006364;29;20253;-78
2023/09/19 11:50:02;;;;;;;5.60;3.50;;;20.30;50.10;;;;;;6011611;29;20255;-78
2023/09/19 11:53:06;;;;;;;3.10;2.80;;;20.30;50.00;;;;;;6015071;29;20739;-78
2023/09/19 11:56:10;;;;;;;5.30;3.97;;;20.10;50.50;;;;;;6008858;29;20249;-77
2023/09/19 11:59:22;;;;;;;3.50;3.20;;;20.10;51.00;;;;;;6011537;29;20919;-77
2023/09/19 12:02:39;;;;;;;3.97;3.37;;;20.10;50.80;;;;;;6008761;29;20244;-78
2023/09/19 12:05:44;;;;;;;5.43;3.20;;;19.90;51.10;;;;;;6013966;29;20237;-78
2023/09/19 12:08:48;;;;;;;6.10;3.20;;;20.20;50.40;;;;;;6008966;29;20613;-77
2023/09/19 12:11:52;;;;;;;3.23;2.97;;;20.30;49.70;;;;;;6011882;29;20259;-77
2023/09/19 12:14:58;;;;;;;3.40;2.80;;;20.20;49.50;;;;;;6013163;29;20362;-79
2023/09/19 12:18:03;;;;;;;3.50;3.20;;;20.10;49.90;;;;;;6010952;29;20269;-78
2023/09/19 12:21:12;;;;;;;4.83;3.00;;;20.00;50.10;;;;;;6009688;29;20714;-78
2023/09/19 12:24:18;;;;;;;5.90;3.20;;;19.90;50.10;;;;;;6007823;29;20245;-78
2023/09/19 12:27:22;;;;;;;3.90;3.07;;;20.10;49.70;;;;;;6015885;29;20233;-78
2023/09/19 12:30:33;;;;;;;4.00;2.93;;;20.10;49.70;;;;;;6012848;29;20248;-76
2023/09/19 12:33:36;;;;;;;7.80;2.70;;;20.10;49.40;;;;;;6019407;29;20436;-79
2023/09/19 12:36:41;;;;;;;2.97;2.70;;;20.10;48.40;;;;;;6014280;29;20256;-79
2023/09/19 12:39:48;;;;;;;4.60;2.60;;;20.10;49.10;;;;;;6013094;29;20253;-78
2023/09/19 12:42:55;;;;;;;2.97;2.60;;;20.30;48.90;;;;;;6004355;29;20237;-78
2023/09/19 12:45:59;;;;;;;3.37;2.47;;;20.30;48.40;;;;;;6002962;29;20391;-78
2023/09/19 12:49:19;;;;;;;3.30;2.40;;;20.40;48.20;;;;;;6017162;29;20659;-80
2023/09/19 12:52:25;;;;;;;2.57;2.47;;;20.50;47.90;;;;;;6011670;29;20242;-79
2023/09/19 12:55:32;;;;;;;3.57;3.23;;;20.50;48.50;;;;;;6004913;29;20271;-81
2023/09/19 12:58:48;;;;;;;4.23;2.67;;;20.70;48.40;;;;;;6006718;29;20257;-80
2023/09/19 13:02:05;;;;;;;3.53;2.90;;;20.70;48.30;;;;;;6012192;29;20245;-78
2023/09/19 13:05:10;;;;;;;4.80;2.90;;;20.80;48.40;;;;;;6018970;29;20237;-81
2023/09/19 13:08:29;;;;;;;3.30;3.10;;;20.90;48.60;;;;;;6008652;29;20744;-77
2023/09/19 13:11:40;;;;;;;4.57;2.90;;;20.80;48.50;;;;;;6014503;29;20272;-79
2023/09/19 13:14:46;;;;;;;2.73;2.57;;;20.70;48.70;;;;;;6019909;29;20336;-78
2023/09/19 13:17:50;;;;;;;4.20;2.77;;;20.60;49.20;;;;;;6006824;29;20272;-79
2023/09/19 13:21:07;;;;;;;3.00;2.80;;;20.60;49.50;;;;;;6017800;29;20232;-78
2023/09/19 13:24:22;;;;;;;8.67;3.10;;;20.50;49.30;;;;;;6018521;29;20745;-79
2023/09/19 13:27:27;;;;;;;3.97;2.60;;;20.50;49.40;;;;;;6019164;29;20240;-77
2023/09/19 13:30:31;;;;;;;5.83;3.23;;;20.30;49.70;;;;;;6008313;29;20245;-78
2023/09/19 13:33:43;;;;;;;3.60;2.90;;;20.50;49.40;;;;;;6012635;29;20242;-78
2023/09/19 13:36:48;;;;;;;3.03;2.80;;;20.50;49.20;;;;;;6015333;29;20238;-78
2023/09/19 13:39:53;;;;;;;3.03;2.73;;;20.50;49.20;;;;;;6012680;29;20328;-78
2023/09/19 13:42:56;;;;;;;5.47;3.10;;;20.20;49.40;;;;;;6012614;29;20310;-78
2023/09/19 13:45:59;;;;;;;5.97;2.50;;;20.00;49.70;;;;;;6019540;29;20245;-78
2023/09/19 13:49:03;;;;;;;5.73;2.93;;;20.00;50.10;;;;;;6011018;29;20328;-79
2023/09/19 13:52:07;;;;;;;5.33;2.83;;;20.00;50.40;;;;;;6007377;29;20272;-79
2023/09/19 13:55:14;;;;;;;4.53;2.90;;;20.10;50.00;;;;;;6010983;29;20241;-78
2023/09/19 13:58:18;;;;;;;6.07;4.30;;;20.10;50.10;;;;;;6015968;29;20398;-78
2023/09/19 14:01:21;;;;;;;3.33;2.83;;;20.10;49.80;;;;;;6016651;29;20307;-80
2023/09/19 14:04:24;;;;;;;3.67;2.90;;;20.10;49.60;;;;;;6020193;29;20267;-78
2023/09/19 14:07:27;;;;;;;4.77;3.00;;;20.00;50.10;;;;;;6015241;29;20782;-77
2023/09/19 14:10:32;;;;;;;5.60;2.63;;;20.00;50.10;;;;;;6008403;29;20238;-79
2023/09/19 14:13:36;;;;;;;3.00;2.80;;;20.10;50.10;;;;;;6005863;29;20264;-78
2023/09/19 14:16:40;;;;;;;3.60;2.80;;;20.10;50.10;;;;;;6012992;29;20245;-79
2023/09/19 14:19:44;;;;;;;5.60;2.60;;;20.20;49.50;;;;;;6009047;29;20242;-81
2023/09/19 14:22:48;;;;;;;2.97;2.77;;;20.50;49.90;;;;;;6017474;29;20332;-76
2023/09/19 14:25:53;;;;;;;2.80;2.70;;;20.50;49.30;;;;;;6009029;29;20623;-77
2023/09/19 14:28:57;;;;;;;3.50;3.20;;;20.50;49.30;;;;;;6015992;29;21746;-79
2023/09/19 14:32:02;;;;;;;3.27;2.93;;;20.50;50.00;;;;;;6010578;29;20252;-77
2023/09/19 14:35:06;;;;;;;3.07;2.87;;;20.40;50.00;;;;;;6009864;29;20240;-77
2023/09/19 14:38:09;;;;;;;2.47;2.27;;;20.40;49.70;;;;;;6015673;29;20252;-76
2023/09/19 14:41:14;;;;;;;4.83;2.60;;;20.30;49.60;;;;;;6009862;29;20248;-76
2023/09/19 14:44:18;;;;;;;3.30;3.00;;;20.30;49.80;;;;;;6009973;29;20241;-77
2023/09/19 14:47:23;;;;;;;4.30;2.87;;;20.30;49.90;;;;;;6008623;29;20247;-76
2023/09/19 14:50:27;;;;;;;4.27;3.80;;;20.30;50.40;;;;;;6012247;29;20670;-77
2023/09/19 14:53:30;;;;;;;4.30;2.90;;;20.20;49.80;;;;;;6012492;29;20249;-77
2023/09/19 14:56:35;;;;;;;4.83;3.07;;;20.10;50.40;;;;;;6007369;29;20253;-78
2023/09/19 14:59:38;;;;;;;3.60;2.97;;;20.20;50.70;;;;;;6009645;29;20260;-76
2023/09/19 15:02:41;;;;;;;2.60;2.40;;;20.30;49.70;;;;;;6013263;29;20276;-79
2023/09/19 15:05:45;;;;;;;2.80;2.60;;;20.30;49.70;;;;;;6013129;29;20261;-77
2023/09/19 15:08:50;;;;;;;3.83;3.20;;;20.30;49.60;;;;;;6014676;29;20264;-79
2023/09/19 15:11:57;;;;;;;3.10;2.60;;;20.10;49.90;;;;;;6023086;29;20263;-78
2023/09/19 15:15:00;;;;;;;3.27;3.10;;;20.00;50.60;;;;;;6012558;29;20245;-77
2023/09/19 15:18:04;;;;;;;2.70;2.53;;;20.20;50.70;;;;;;6014465;29;20245;-77
2023/09/19 15:21:09;;;;;;;5.30;3.10;;;20.30;50.00;;;;;;6014338;29;20324;-76
2023/09/19 15:24:12;;;;;;;4.50;3.27;;;20.20;50.20;;;;;;6005393;29;20283;-79
2023/09/19 15:27:19;;;;;;;3.60;2.80;;;20.20;50.00;;;;;;6019972;29;20255;-75
2023/09/19 15:30:23;;;;;;;8.33;3.63;;;20.10;50.50;;;;;;6011077;29;20244;-76
2023/09/19 15:33:28;;;;;;;6.87;3.67;;;20.10;49.80;;;;;;6017136;29;20248;-76
2023/09/19 15:36:31;;;;;;;5.27;3.17;;;20.00;50.30;;;;;;6006896;29;20242;-76
2023/09/19 15:39:34;;;;;;;9.23;3.33;;;20.00;50.30;;;;;;6015631;29;20267;-77
2023/09/19 15:42:38;;;;;;;6.60;3.40;;;19.90;50.20;;;;;;6020964;29;20324;-76
2023/09/19 15:45:42;;;;;;;4.70;2.90;;;19.90;50.50;;;;;;6008668;29;20260;-74
2023/09/19 15:48:45;;;;;;;6.30;3.43;;;19.80;50.70;;;;;;6017135;29;20791;-77
2023/09/19 15:51:48;;;;;;;3.90;3.03;;;19.80;51.10;;;;;;6018150;29;20241;-76
2023/09/19 15:54:52;;;;;;;5.33;3.20;;;19.80;50.60;;;;;;6016376;29;20751;-76
2023/09/19 15:57:56;;;;;;;3.37;3.07;;;19.80;51.00;;;;;;6020297;29;20245;-77
2023/09/19 16:01:05;;;;;;;5.00;3.13;;;19.80;51.00;;;;;;6004790;29;20279;-78
2023/09/19 16:04:09;;;;;;;5.27;3.23;;;19.70;50.70;;;;;;6006484;29;20812;-75
2023/09/19 16:07:12;;;;;;;4.17;3.27;;;19.70;50.90;;;;;;6009168;29;20726;-75
2023/09/19 16:10:16;;;;;;;3.00;2.80;;;19.70;51.20;;;;;;6016648;29;20462;-77
2023/09/19 16:13:20;;;;;;;3.27;2.93;;;19.60;51.20;;;;;;6011908;29;20259;-77
2023/09/19 16:16:25;;;;;;;3.87;3.00;;;19.60;51.60;;;;;;6008434;29;20317;-76